Time;durP1;ratioP1;P1;durP2;ratioP2;P2;SDS_P1;SDS_P2;PMS_P1;PMS_P2;Temp;Humidity;BMP_temperature;BMP_pressure;BME280_temperature;BME280_humidity;BME280_pressure;Samples;Min_cycle;Max_cycle;Signal;HPM_P1;HPM_P2
2023/05/21 00:00:38;;;;;;;5.85;3.80;;;;;;;;;;2032885;29;20028;-88
2023/05/21 00:01:39;;;;;;;4.20;3.53;;;;;;;;;;2032930;29;20115;-89
2023/05/21 00:02:39;;;;;;;5.68;3.92;;;;;;;;;;2024504;29;20035;-89
2023/05/21 00:03:41;;;;;;;7.43;4.10;;;;;;;;;;2024264;29;20028;-88
2023/05/21 00:04:57;;;;;;;8.82;3.86;;;;;;;;;;1840234;29;10001181;-89
2023/05/21 00:06:00;;;;;;;6.82;4.45;;;;;;;;;;1688518;29;10000898;-89
2023/05/21 00:07:00;;;;;;;7.15;4.13;;;;;;;;;;2023869;29;20026;-88
2023/05/21 00:08:01;;;;;;;8.65;4.65;;;;;;;;;;2023979;29;20430;-89
2023/05/21 00:09:03;;;;;;;6.50;4.05;;;;;;;;;;2023857;29;20444;-89
2023/05/21 00:10:05;;;;;;;6.57;4.38;;;;;;;;;;2024711;29;20027;-88
2023/05/21 00:11:06;;;;;;;4.97;3.78;;;;;;;;;;2032373;29;20032;-88
2023/05/21 00:12:07;;;;;;;8.73;4.20;;;;;;;;;;2032853;29;20385;-88
2023/05/21 00:13:09;;;;;;;8.00;4.00;;;;;;;;;;2032632;29;20043;-88
2023/05/21 00:14:09;;;;;;;4.68;3.85;;;;;;;;;;2032580;29;20123;-88
2023/05/21 00:15:10;;;;;;;7.75;4.32;;;;;;;;;;2024036;29;20499;-89
2023/05/21 00:16:11;;;;;;;6.38;3.63;;;;;;;;;;2016345;29;20474;-88
2023/05/21 00:17:12;;;;;;;6.47;4.15;;;;;;;;;;2024060;29;20051;-89
2023/05/21 00:18:12;;;;;;;5.38;4.20;;;;;;;;;;2032524;29;20031;-88
2023/05/21 00:19:13;;;;;;;5.85;4.00;;;;;;;;;;2032338;29;20551;-88
2023/05/21 00:20:15;;;;;;;7.90;4.18;;;;;;;;;;2032356;29;20020;-90
2023/05/21 00:21:22;;;;;;;7.18;3.97;;;;;;;;;;2023633;29;20024;-89
2023/05/21 00:22:22;;;;;;;7.38;4.13;;;;;;;;;;2024353;29;20119;-88
2023/05/21 00:23:25;;;;;;;5.78;4.10;;;;;;;;;;2023705;29;20028;-88
2023/05/21 00:24:25;;;;;;;7.10;4.00;;;;;;;;;;2023687;29;20032;-89
2023/05/21 00:25:25;;;;;;;5.95;4.07;;;;;;;;;;2023595;29;20052;-89
2023/05/21 00:26:26;;;;;;;5.40;4.18;;;;;;;;;;2023897;29;20036;-89
2023/05/21 00:27:26;;;;;;;6.07;4.05;;;;;;;;;;2023968;29;20036;-89
2023/05/21 00:28:27;;;;;;;8.38;3.65;;;;;;;;;;2031986;29;20043;-88
2023/05/21 00:29:28;;;;;;;7.57;3.78;;;;;;;;;;2031947;29;20091;-89
2023/05/21 00:30:29;;;;;;;6.18;4.03;;;;;;;;;;2032500;29;20046;-89
2023/05/21 00:31:30;;;;;;;7.20;4.38;;;;;;;;;;2023894;29;20043;-89
2023/05/21 00:32:31;;;;;;;5.40;3.85;;;;;;;;;;2023945;29;20031;-88
2023/05/21 00:33:33;;;;;;;6.63;4.15;;;;;;;;;;2023509;29;20075;-89
2023/05/21 00:34:33;;;;;;;5.53;4.05;;;;;;;;;;2023898;29;20032;-86
2023/05/21 00:35:34;;;;;;;5.15;3.78;;;;;;;;;;2033341;29;20501;-87
2023/05/21 00:36:34;;;;;;;8.05;4.32;;;;;;;;;;2033799;29;20496;-88
2023/05/21 00:37:35;;;;;;;6.20;3.75;;;;;;;;;;1678364;29;10234000;-89
2023/05/21 00:38:36;;;;;;;5.20;4.05;;;;;;;;;;2024730;29;20453;-87
2023/05/21 00:39:37;;;;;;;5.95;3.97;;;;;;;;;;2027367;29;20134;-89
2023/05/21 00:40:40;;;;;;;5.68;3.90;;;;;;;;;;2023708;29;20452;-89
2023/05/21 00:41:41;;;;;;;5.47;4.00;;;;;;;;;;2031992;29;20027;-89
2023/05/21 00:42:46;;;;;;;6.30;4.55;;;;;;;;;;2032115;29;20118;-88
2023/05/21 00:43:47;;;;;;;7.20;3.90;;;;;;;;;;2023298;29;20047;-88
2023/05/21 00:44:47;;;;;;;5.57;3.58;;;;;;;;;;2023720;29;20047;-89
2023/05/21 00:45:48;;;;;;;8.80;4.07;;;;;;;;;;2032412;29;20036;-88
2023/05/21 00:46:52;;;;;;;8.98;4.00;;;;;;;;;;2032435;29;20032;-89
2023/05/21 00:47:55;;;;;;;8.80;4.25;;;;;;;;;;2023878;29;20533;-89
2023/05/21 00:48:57;;;;;;;4.70;3.85;;;;;;;;;;2016466;29;20056;-89
2023/05/21 00:49:58;;;;;;;5.22;3.90;;;;;;;;;;2016050;29;20494;-89
2023/05/21 00:50:58;;;;;;;7.45;3.50;;;;;;;;;;2023680;29;20033;-89
2023/05/21 00:52:00;;;;;;;6.80;4.20;;;;;;;;;;2032003;29;20079;-89
2023/05/21 00:53:01;;;;;;;5.68;3.97;;;;;;;;;;2023885;29;20024;-87
2023/05/21 00:54:01;;;;;;;8.45;4.05;;;;;;;;;;2023726;29;20072;-87
2023/05/21 00:55:02;;;;;;;7.10;4.30;;;;;;;;;;2032001;29;20036;-89
2023/05/21 00:56:03;;;;;;;7.70;4.32;;;;;;;;;;2032019;29;20426;-89
2023/05/21 00:57:04;;;;;;;7.15;4.00;;;;;;;;;;2023609;29;20099;-90
2023/05/21 00:58:06;;;;;;;5.20;4.15;;;;;;;;;;2023710;29;20164;-89
2023/05/21 00:59:06;;;;;;;7.50;3.88;;;;;;;;;;2023790;29;20449;-89
2023/05/21 01:00:09;;;;;;;7.95;4.20;;;;;;;;;;2032314;29;20056;-88
2023/05/21 01:01:12;;;;;;;6.85;4.07;;;;;;;;;;2032459;29;20142;-89
2023/05/21 01:02:16;;;;;;;7.97;4.38;;;;;;;;;;2032275;29;20027;-88
2023/05/21 01:03:27;;;;;;;6.09;3.87;;;;;;;;;;2014917;29;10256029;-88
2023/05/21 01:04:27;;;;;;;3.60;3.25;;;;;;;;;;2024169;29;20242;-89
2023/05/21 01:05:28;;;;;;;7.10;3.90;;;;;;;;;;2023607;29;20037;-89
2023/05/21 01:06:28;;;;;;;6.97;4.43;;;;;;;;;;2032303;29;20043;-89
2023/05/21 01:07:29;;;;;;;8.57;4.22;;;;;;;;;;2023559;29;20734;-89
2023/05/21 01:08:30;;;;;;;6.07;4.00;;;;;;;;;;2023477;29;20032;-89
2023/05/21 01:09:30;;;;;;;7.20;4.20;;;;;;;;;;2023724;29;20111;-88
2023/05/21 01:10:31;;;;;;;5.68;4.50;;;;;;;;;;2023037;29;20397;-88
2023/05/21 01:11:39;;;;;;;7.35;4.40;;;;;;;;;;2023444;29;20263;-89
2023/05/21 01:12:42;;;;;;;6.18;3.97;;;;;;;;;;2023536;29;20428;-87
2023/05/21 01:13:44;;;;;;;6.65;3.70;;;;;;;;;;2023563;29;20063;-88
2023/05/21 01:14:45;;;;;;;6.63;3.55;;;;;;;;;;2023645;29;20127;-88
2023/05/21 01:15:46;;;;;;;7.35;4.65;;;;;;;;;;2025219;29;20083;-87
2023/05/21 01:16:49;;;;;;;6.30;4.00;;;;;;;;;;1680890;29;10263810;-89
2023/05/21 01:17:50;;;;;;;4.90;3.70;;;;;;;;;;2016003;29;20140;-89
2023/05/21 01:18:52;;;;;;;5.50;4.03;;;;;;;;;;2015885;29;20494;-89
2023/05/21 01:19:54;;;;;;;5.70;4.40;;;;;;;;;;2016117;29;20581;-89
2023/05/21 01:20:55;;;;;;;5.70;4.53;;;;;;;;;;2023696;29;20490;-89
2023/05/21 01:22:00;;;;;;;5.47;3.80;;;;;;;;;;2023357;29;20033;-90
2023/05/21 01:23:01;;;;;;;4.80;3.92;;;;;;;;;;2024269;29;20028;-90
2023/05/21 01:24:04;;;;;;;5.53;4.32;;;;;;;;;;2024030;29;20167;-89
2023/05/21 01:25:05;;;;;;;7.10;4.03;;;;;;;;;;2016302;29;20626;-89
2023/05/21 01:26:06;;;;;;;8.45;4.00;;;;;;;;;;2023633;29;20159;-90
2023/05/21 01:27:09;;;;;;;7.20;4.40;;;;;;;;;;2032053;29;20058;-89
2023/05/21 01:28:09;;;;;;;6.05;3.67;;;;;;;;;;2023780;29;20432;-90
2023/05/21 01:29:12;;;;;;;8.02;4.20;;;;;;;;;;2015714;29;20028;-89
2023/05/21 01:30:13;;;;;;;8.57;4.63;;;;;;;;;;2023795;29;20028;-89
2023/05/21 01:31:54;;;;;;;5.80;4.68;;;;;;;;;;2037209;29;20027;-88
2023/05/21 01:33:03;;;;;;;6.13;3.97;;;;;;;;;;2007861;29;20132;-89
2023/05/21 01:34:05;;;;;;;5.90;3.88;;;;;;;;;;2022215;29;20033;-87
2023/05/21 01:35:26;;;;;;;6.28;4.28;;;;;;;;;;2023402;29;20028;-89
2023/05/21 01:36:33;;;;;;;7.30;4.35;;;;;;;;;;2025947;29;20059;-89
2023/05/21 01:37:40;;;;;;;4.82;3.80;;;;;;;;;;2023576;29;20120;-89
2023/05/21 01:38:46;;;;;;;5.38;3.65;;;;;;;;;;2024904;29;20039;-89
2023/05/21 01:39:53;;;;;;;6.40;4.25;;;;;;;;;;2025753;29;20035;-89
2023/05/21 01:41:05;;;;;;;5.68;4.15;;;;;;;;;;2028177;29;20033;-89
2023/05/21 01:42:09;;;;;;;11.77;4.15;;;;;;;;;;2027350;29;20120;-89
2023/05/21 01:43:11;;;;;;;5.50;4.15;;;;;;;;;;2028885;29;20040;-89
2023/05/21 01:44:25;;;;;;;6.20;4.10;;;;;;;;;;1462709;29;10002705;-88
2023/05/21 01:45:29;;;;;;;6.70;4.63;;;;;;;;;;2035831;29;20060;-88
2023/05/21 01:46:33;;;;;;;6.25;3.92;;;;;;;;;;2033873;29;20043;-88
2023/05/21 01:47:36;;;;;;;7.05;4.50;;;;;;;;;;2034012;29;20012;-89
2023/05/21 01:48:37;;;;;;;6.18;4.10;;;;;;;;;;2041942;29;20016;-89
2023/05/21 01:49:39;;;;;;;7.40;4.32;;;;;;;;;;2032713;29;20029;-88
2023/05/21 01:50:40;;;;;;;6.05;4.00;;;;;;;;;;2025712;29;20044;-89
2023/05/21 01:51:41;;;;;;;5.93;3.90;;;;;;;;;;2023811;29;20032;-87
2023/05/21 01:52:53;;;;;;;7.07;3.85;;;;;;;;;;2023619;29;20107;-88
2023/05/21 01:53:53;;;;;;;6.78;4.45;;;;;;;;;;2025004;29;20112;-88
2023/05/21 01:54:56;;;;;;;7.65;4.20;;;;;;;;;;2031838;29;20039;-88
2023/05/21 01:55:58;;;;;;;6.28;4.22;;;;;;;;;;2023326;29;20195;-88
2023/05/21 01:56:58;;;;;;;7.30;4.43;;;;;;;;;;2023293;29;20052;-88
2023/05/21 01:57:59;;;;;;;7.68;4.05;;;;;;;;;;1684160;29;10250640;-88
2023/05/21 01:59:00;;;;;;;6.72;4.32;;;;;;;;;;2023383;29;20029;-88
2023/05/21 02:00:01;;;;;;;8.10;4.35;;;;;;;;;;2023252;29;20509;-89
2023/05/21 02:01:02;;;;;;;7.90;4.15;;;;;;;;;;2023380;29;20064;-88
2023/05/21 02:02:03;;;;;;;6.53;3.75;;;;;;;;;;2023466;29;20535;-88
2023/05/21 02:03:03;;;;;;;6.47;4.30;;;;;;;;;;2032027;29;20116;-88
2023/05/21 02:04:04;;;;;;;7.75;4.55;;;;;;;;;;2040538;29;20044;-89
2023/05/21 02:05:05;;;;;;;6.30;3.95;;;;;;;;;;2036614;29;20441;-88
2023/05/21 02:06:05;;;;;;;8.43;4.20;;;;;;;;;;2029956;29;20036;-89
2023/05/21 02:07:06;;;;;;;5.05;4.50;;;;;;;;;;2032977;29;20053;-88
2023/05/21 02:08:07;;;;;;;6.45;4.30;;;;;;;;;;2033254;29;20009;-88
2023/05/21 02:09:07;;;;;;;9.60;4.35;;;;;;;;;;2027450;29;20536;-88
2023/05/21 02:10:09;;;;;;;8.70;4.65;;;;;;;;;;2024560;29;20044;-89
2023/05/21 02:11:10;;;;;;;5.82;4.38;;;;;;;;;;2024328;29;20060;-89
2023/05/21 02:12:11;;;;;;;5.82;4.72;;;;;;;;;;2024463;29;20033;-88
2023/05/21 02:13:12;;;;;;;8.25;4.70;;;;;;;;;;2031327;29;20028;-88
2023/05/21 02:14:12;;;;;;;5.88;4.05;;;;;;;;;;2031987;29;20032;-88
2023/05/21 02:15:13;;;;;;;6.57;4.22;;;;;;;;;;2032100;29;20035;-89
2023/05/21 02:16:14;;;;;;;9.20;4.28;;;;;;;;;;2032117;29;20024;-89
2023/05/21 02:17:16;;;;;;;5.57;3.80;;;;;;;;;;2032054;29;20024;-89
2023/05/21 02:18:17;;;;;;;9.23;4.68;;;;;;;;;;2032118;29;20136;-88
2023/05/21 02:19:17;;;;;;;8.93;4.65;;;;;;;;;;2031965;29;20051;-88
2023/05/21 02:20:18;;;;;;;6.85;4.25;;;;;;;;;;2031696;29;20155;-88
2023/05/21 02:21:19;;;;;;;6.43;4.65;;;;;;;;;;2023285;29;20138;-88
2023/05/21 02:22:19;;;;;;;12.00;5.03;;;;;;;;;;2023155;29;20489;-89
2023/05/21 02:23:20;;;;;;;7.82;4.68;;;;;;;;;;2027521;29;20352;-88
2023/05/21 02:24:23;;;;;;;5.80;4.28;;;;;;;;;;2033457;29;20067;-89
2023/05/21 02:25:23;;;;;;;6.88;4.35;;;;;;;;;;2031742;29;20472;-89
2023/05/21 02:26:24;;;;;;;5.60;4.10;;;;;;;;;;2032621;29;20024;-88
2023/05/21 02:27:25;;;;;;;7.63;4.30;;;;;;;;;;2025449;29;20039;-87
2023/05/21 02:28:26;;;;;;;5.90;5.10;;;;;;;;;;2026085;29;20063;-86
2023/05/21 02:29:26;;;;;;;7.47;4.15;;;;;;;;;;2032372;29;20036;-88
2023/05/21 02:30:26;;;;;;;6.93;4.13;;;;;;;;;;2031944;29;20035;-88
2023/05/21 02:31:27;;;;;;;8.18;4.28;;;;;;;;;;2031619;29;20032;-88
2023/05/21 02:32:27;;;;;;;8.75;4.32;;;;;;;;;;2022911;29;20036;-88
2023/05/21 02:33:28;;;;;;;6.57;4.13;;;;;;;;;;2023400;29;20433;-88
2023/05/21 02:34:31;;;;;;;5.10;4.07;;;;;;;;;;2032080;29;20028;-88
2023/05/21 02:35:32;;;;;;;7.15;4.40;;;;;;;;;;2023280;29;20036;-88
2023/05/21 02:36:34;;;;;;;6.82;4.43;;;;;;;;;;2023292;29;20505;-89
2023/05/21 02:37:35;;;;;;;6.50;4.40;;;;;;;;;;1683976;29;10257584;-88
2023/05/21 02:38:37;;;;;;;5.50;4.18;;;;;;;;;;2023167;29;20194;-87
2023/05/21 02:39:37;;;;;;;5.63;4.13;;;;;;;;;;2023158;29;20096;-91
2023/05/21 02:40:38;;;;;;;9.40;4.60;;;;;;;;;;2031401;29;20115;-87
2023/05/21 02:41:39;;;;;;;13.27;4.45;;;;;;;;;;2031637;29;20531;-90
2023/05/21 02:42:40;;;;;;;6.65;4.63;;;;;;;;;;2031770;29;20036;-88
2023/05/21 02:43:40;;;;;;;8.98;4.45;;;;;;;;;;2022900;29;20043;-90
2023/05/21 02:44:41;;;;;;;7.05;4.57;;;;;;;;;;2015406;29;20073;-89
2023/05/21 02:45:41;;;;;;;7.15;4.85;;;;;;;;;;2023102;29;20119;-90
2023/05/21 02:46:42;;;;;;;5.97;4.38;;;;;;;;;;2015510;29;20032;-89
2023/05/21 02:47:42;;;;;;;6.53;4.00;;;;;;;;;;2015498;29;20177;-90
2023/05/21 02:48:42;;;;;;;6.35;4.30;;;;;;;;;;2022978;29;20165;-90
2023/05/21 02:49:43;;;;;;;5.20;4.00;;;;;;;;;;2022953;29;20033;-90
2023/05/21 02:50:45;;;;;;;6.78;4.22;;;;;;;;;;2022955;29;20524;-89
2023/05/21 02:51:45;;;;;;;6.82;4.70;;;;;;;;;;2015607;29;20025;-89
2023/05/21 02:52:45;;;;;;;5.63;4.35;;;;;;;;;;1681299;29;10135843;-89
2023/05/21 02:53:46;;;;;;;7.03;4.45;;;;;;;;;;2031562;29;20045;-89
2023/05/21 02:54:47;;;;;;;9.38;4.22;;;;;;;;;;2031476;29;20521;-89
2023/05/21 02:55:47;;;;;;;6.82;4.05;;;;;;;;;;2031533;29;20052;-89
2023/05/21 02:56:48;;;;;;;5.45;3.90;;;;;;;;;;2022698;29;20454;-89
2023/05/21 02:57:48;;;;;;;5.50;4.30;;;;;;;;;;2015434;29;20041;-89
2023/05/21 02:58:51;;;;;;;6.75;4.47;;;;;;;;;;2023117;29;20032;-89
2023/05/21 02:59:52;;;;;;;7.80;4.40;;;;;;;;;;2032732;29;20028;-89
2023/05/21 03:00:52;;;;;;;6.00;4.53;;;;;;;;;;2024294;29;20437;-88
2023/05/21 03:01:52;;;;;;;6.25;4.78;;;;;;;;;;2024165;29;20036;-88
2023/05/21 03:02:53;;;;;;;7.78;4.55;;;;;;;;;;2032813;29;20036;-88
2023/05/21 03:03:53;;;;;;;11.32;5.28;;;;;;;;;;2031802;29;20088;-88
2023/05/21 03:04:54;;;;;;;6.03;4.25;;;;;;;;;;2024139;29;20040;-88
2023/05/21 03:05:57;;;;;;;6.65;4.63;;;;;;;;;;2024249;29;20040;-88
2023/05/21 03:07:00;;;;;;;6.22;3.97;;;;;;;;;;2024293;29;20096;-88
2023/05/21 03:08:01;;;;;;;5.30;4.28;;;;;;;;;;2024338;29;20029;-88
2023/05/21 03:09:02;;;;;;;7.10;4.60;;;;;;;;;;2032450;29;20539;-88
2023/05/21 03:10:04;;;;;;;6.30;4.78;;;;;;;;;;2032489;29;20561;-88
2023/05/21 03:11:04;;;;;;;6.07;4.43;;;;;;;;;;2032367;29;20078;-89
2023/05/21 03:12:07;;;;;;;5.93;4.25;;;;;;;;;;2032644;29;20028;-88
2023/05/21 03:13:07;;;;;;;6.65;4.00;;;;;;;;;;2032665;29;20365;-88
2023/05/21 03:14:08;;;;;;;6.97;4.25;;;;;;;;;;2032371;29;20062;-89
2023/05/21 03:15:09;;;;;;;7.53;4.10;;;;;;;;;;2026129;29;20037;-88
2023/05/21 03:16:10;;;;;;;5.65;4.07;;;;;;;;;;2027168;29;20028;-90
2023/05/21 03:17:12;;;;;;;7.22;4.80;;;;;;;;;;2023923;29;20115;-89
2023/05/21 03:18:13;;;;;;;5.80;4.20;;;;;;;;;;2024269;29;20151;-89
2023/05/21 03:19:14;;;;;;;8.27;4.65;;;;;;;;;;2032568;29;20664;-89
2023/05/21 03:20:17;;;;;;;6.47;4.20;;;;;;;;;;2032721;29;20145;-89
2023/05/21 03:21:21;;;;;;;8.32;4.68;;;;;;;;;;2032302;29;20060;-89
2023/05/21 03:22:21;;;;;;;6.20;4.57;;;;;;;;;;2023933;29;20572;-89
2023/05/21 03:23:22;;;;;;;8.73;4.45;;;;;;;;;;2023910;29;20095;-89
2023/05/21 03:24:22;;;;;;;5.85;3.85;;;;;;;;;;2032704;29;20508;-90
2023/05/21 03:25:23;;;;;;;6.57;4.43;;;;;;;;;;2023966;29;20154;-90
2023/05/21 03:26:26;;;;;;;6.60;4.50;;;;;;;;;;2024058;29;20183;-90
2023/05/21 03:27:26;;;;;;;7.32;4.95;;;;;;;;;;2024188;29;20032;-90
2023/05/21 03:28:27;;;;;;;4.85;3.85;;;;;;;;;;2024172;29;20028;-89
2023/05/21 03:29:27;;;;;;;8.82;4.53;;;;;;;;;;2032260;29;20500;-89
2023/05/21 03:30:28;;;;;;;4.75;4.15;;;;;;;;;;2024109;29;20083;-90
2023/05/21 03:31:28;;;;;;;7.53;5.00;;;;;;;;;;2023966;29;20025;-89
2023/05/21 03:32:29;;;;;;;5.03;3.75;;;;;;;;;;2024257;29;20048;-88
2023/05/21 03:33:29;;;;;;;7.27;4.60;;;;;;;;;;1681294;29;10344048;-88
2023/05/21 03:34:33;;;;;;;7.88;4.25;;;;;;;;;;2032036;29;20042;-89
2023/05/21 03:35:33;;;;;;;5.80;4.13;;;;;;;;;;2023813;29;20180;-89
2023/05/21 03:36:33;;;;;;;7.78;4.90;;;;;;;;;;2023972;29;20469;-88
2023/05/21 03:37:34;;;;;;;8.55;4.55;;;;;;;;;;2032623;29;20028;-88
2023/05/21 03:38:35;;;;;;;5.82;4.72;;;;;;;;;;2032367;29;20055;-88
2023/05/21 03:39:35;;;;;;;8.63;4.60;;;;;;;;;;2024125;29;20160;-88
2023/05/21 03:40:35;;;;;;;6.03;4.25;;;;;;;;;;2024122;29;20111;-88
2023/05/21 03:41:36;;;;;;;5.78;3.85;;;;;;;;;;2032488;29;20476;-89
2023/05/21 03:42:36;;;;;;;5.75;4.30;;;;;;;;;;2032286;29;20500;-89
2023/05/21 03:43:37;;;;;;;7.07;3.92;;;;;;;;;;2023864;29;20016;-89
2023/05/21 03:44:38;;;;;;;5.65;4.32;;;;;;;;;;2016176;29;20048;-89
2023/05/21 03:45:38;;;;;;;6.30;4.10;;;;;;;;;;2024135;29;20041;-89
2023/05/21 03:46:39;;;;;;;7.72;4.85;;;;;;;;;;2032569;29;20111;-89
2023/05/21 03:47:40;;;;;;;13.05;6.28;;;;;;;;;;2032415;29;20038;-89
2023/05/21 03:48:41;;;;;;;5.88;4.18;;;;;;;;;;2032632;29;20024;-90
2023/05/21 03:49:41;;;;;;;5.75;4.13;;;;;;;;;;2032513;29;20060;-89
2023/05/21 03:50:42;;;;;;;5.65;4.20;;;;;;;;;;2024033;29;20084;-89
2023/05/21 03:51:42;;;;;;;6.68;4.30;;;;;;;;;;2023857;29;20165;-89
2023/05/21 03:52:43;;;;;;;5.93;4.15;;;;;;;;;;2024058;29;20026;-89
2023/05/21 03:53:43;;;;;;;7.63;4.60;;;;;;;;;;2032489;29;20167;-89
2023/05/21 03:54:43;;;;;;;7.30;3.95;;;;;;;;;;2032211;29;20024;-89
2023/05/21 03:55:44;;;;;;;9.23;4.40;;;;;;;;;;2024158;29;20025;-89
2023/05/21 03:56:44;;;;;;;6.40;4.30;;;;;;;;;;2024277;29;20405;-89
2023/05/21 03:57:45;;;;;;;7.50;4.05;;;;;;;;;;2032651;29;20036;-90
2023/05/21 03:58:45;;;;;;;5.65;4.30;;;;;;;;;;2032742;29;20035;-89
2023/05/21 03:59:46;;;;;;;6.25;4.63;;;;;;;;;;2032509;29;20031;-89
2023/05/21 04:00:47;;;;;;;5.53;4.03;;;;;;;;;;2032701;29;20353;-89
2023/05/21 04:01:47;;;;;;;6.13;4.18;;;;;;;;;;2032351;29;20028;-89
2023/05/21 04:02:50;;;;;;;5.43;3.80;;;;;;;;;;2023989;29;20555;-89
2023/05/21 04:03:50;;;;;;;6.25;4.07;;;;;;;;;;2016887;29;20020;-89
2023/05/21 04:04:52;;;;;;;5.85;4.13;;;;;;;;;;2024119;29;20024;-90
2023/05/21 04:05:53;;;;;;;7.75;4.30;;;;;;;;;;2024140;29;20039;-89
2023/05/21 04:06:54;;;;;;;7.57;4.03;;;;;;;;;;2024389;29;20078;-88
2023/05/21 04:07:54;;;;;;;9.80;4.55;;;;;;;;;;2038502;29;20048;-89
2023/05/21 04:08:55;;;;;;;5.53;4.00;;;;;;;;;;2024129;29;20152;-89
2023/05/21 04:09:55;;;;;;;6.95;4.97;;;;;;;;;;2024318;29;20037;-90
2023/05/21 04:10:56;;;;;;;8.68;4.70;;;;;;;;;;2031688;29;20401;-90
2023/05/21 04:11:56;;;;;;;7.28;4.07;;;;;;;;;;2024366;29;20033;-90
2023/05/21 04:12:57;;;;;;;6.97;4.72;;;;;;;;;;2024386;29;20036;-89
2023/05/21 04:13:57;;;;;;;7.05;4.47;;;;;;;;;;2024289;29;20080;-91
2023/05/21 04:14:58;;;;;;;7.32;4.70;;;;;;;;;;2039342;29;20035;-90
2023/05/21 04:15:58;;;;;;;10.60;5.80;;;;;;;;;;2034642;29;20028;-90
2023/05/21 04:17:15;;;;;;;5.56;4.44;;;;;;;;;;1887787;29;10242942;-91
2023/05/21 04:18:16;;;;;;;8.82;4.88;;;;;;;;;;2035898;29;20253;-89
2023/05/21 04:19:16;;;;;;;7.78;4.65;;;;;;;;;;2042269;29;20012;-91
2023/05/21 04:20:17;;;;;;;11.80;4.72;;;;;;;;;;2038449;29;20092;-90
2023/05/21 04:21:17;;;;;;;7.88;4.18;;;;;;;;;;2033541;29;20040;-90
2023/05/21 04:22:18;;;;;;;7.80;4.30;;;;;;;;;;2033285;29;20065;-91
2023/05/21 04:23:18;;;;;;;7.65;4.68;;;;;;;;;;2024463;29;20495;-91
2023/05/21 04:24:19;;;;;;;7.97;4.90;;;;;;;;;;2016622;29;20072;-91
2023/05/21 04:25:21;;;;;;;9.25;5.15;;;;;;;;;;2024294;29;20051;-91
2023/05/21 04:26:22;;;;;;;9.73;5.05;;;;;;;;;;2032631;29;20043;-90
2023/05/21 04:27:23;;;;;;;7.10;4.80;;;;;;;;;;2032417;29;20087;-90
2023/05/21 04:28:27;;;;;;;6.93;5.25;;;;;;;;;;2024227;29;20032;-90
2023/05/21 04:29:28;;;;;;;10.75;5.07;;;;;;;;;;2024682;29;20108;-88
2023/05/21 04:30:29;;;;;;;6.93;5.18;;;;;;;;;;2023989;29;20055;-88
2023/05/21 04:31:32;;;;;;;7.50;5.45;;;;;;;;;;2016317;29;20047;-88
2023/05/21 04:32:33;;;;;;;8.75;5.65;;;;;;;;;;2024170;29;20528;-89
2023/05/21 04:33:34;;;;;;;11.65;5.50;;;;;;;;;;1687775;29;10250821;-88
2023/05/21 04:34:35;;;;;;;9.65;5.63;;;;;;;;;;2041514;29;20047;-88
2023/05/21 04:35:35;;;;;;;7.40;5.63;;;;;;;;;;2040866;29;20035;-88
2023/05/21 04:36:35;;;;;;;8.20;5.22;;;;;;;;;;2041630;29;20028;-88
2023/05/21 04:37:40;;;;;;;10.10;5.63;;;;;;;;;;2041611;29;20048;-89
2023/05/21 04:38:41;;;;;;;7.80;5.80;;;;;;;;;;2039348;29;20043;-87
2023/05/21 04:39:43;;;;;;;8.18;4.80;;;;;;;;;;2032944;29;20546;-89
2023/05/21 04:40:43;;;;;;;9.18;5.88;;;;;;;;;;2032732;29;20031;-88
2023/05/21 04:41:44;;;;;;;9.20;5.68;;;;;;;;;;2033005;29;20082;-89
2023/05/21 04:42:45;;;;;;;8.70;5.50;;;;;;;;;;2032869;29;20108;-89
2023/05/21 04:43:46;;;;;;;8.10;5.45;;;;;;;;;;2032340;29;20396;-88
2023/05/21 04:44:47;;;;;;;8.77;5.78;;;;;;;;;;2032205;29;20104;-90
2023/05/21 04:45:48;;;;;;;7.20;5.47;;;;;;;;;;1670658;29;10431998;-88
2023/05/21 04:46:49;;;;;;;7.70;5.45;;;;;;;;;;2024246;29;20036;-90
2023/05/21 04:47:50;;;;;;;8.60;5.55;;;;;;;;;;2023118;29;20040;-89
2023/05/21 04:48:56;;;;;;;7.75;5.80;;;;;;;;;;2023067;29;20116;-90
2023/05/21 04:49:58;;;;;;;10.43;6.47;;;;;;;;;;2023506;29;20104;-89
2023/05/21 04:50:58;;;;;;;8.07;6.07;;;;;;;;;;2023675;29;20080;-89
2023/05/21 04:51:59;;;;;;;12.10;6.28;;;;;;;;;;2023264;29;20104;-89
2023/05/21 04:53:02;;;;;;;9.82;6.10;;;;;;;;;;2023100;29;20034;-89
2023/05/21 04:54:02;;;;;;;8.30;6.10;;;;;;;;;;2015563;29;20021;-89
2023/05/21 04:55:03;;;;;;;11.70;7.03;;;;;;;;;;2023773;29;20020;-90
2023/05/21 04:56:04;;;;;;;12.20;6.43;;;;;;;;;;2023302;29;20028;-90
2023/05/21 04:57:05;;;;;;;8.10;5.72;;;;;;;;;;2023778;29;20025;-88
2023/05/21 04:58:06;;;;;;;7.90;6.13;;;;;;;;;;2031964;29;20046;-91
2023/05/21 04:59:07;;;;;;;8.10;6.15;;;;;;;;;;2032686;29;20112;-88
2023/05/21 05:00:07;;;;;;;7.40;5.72;;;;;;;;;;2028766;29;20031;-90
2023/05/21 05:01:08;;;;;;;10.77;6.30;;;;;;;;;;2023697;29;20028;-89
2023/05/21 05:02:08;;;;;;;12.10;7.88;;;;;;;;;;2039140;29;20016;-89
2023/05/21 05:03:11;;;;;;;9.32;6.60;;;;;;;;;;2039112;29;20401;-89
2023/05/21 05:04:13;;;;;;;11.40;5.68;;;;;;;;;;2032071;29;20090;-88
2023/05/21 05:05:13;;;;;;;8.30;6.05;;;;;;;;;;2023480;29;20036;-89
2023/05/21 05:06:14;;;;;;;10.13;5.78;;;;;;;;;;2023499;29;20081;-89
2023/05/21 05:07:15;;;;;;;8.55;6.55;;;;;;;;;;2023240;29;20035;-89
2023/05/21 05:08:16;;;;;;;13.75;6.50;;;;;;;;;;2023475;29;20017;-89
2023/05/21 05:09:20;;;;;;;8.63;5.85;;;;;;;;;;2023309;29;20321;-91
2023/05/21 05:10:21;;;;;;;8.57;6.45;;;;;;;;;;2023637;29;20039;-89
2023/05/21 05:11:21;;;;;;;8.15;5.97;;;;;;;;;;2031498;29;20044;-92
2023/05/21 05:12:22;;;;;;;9.60;6.03;;;;;;;;;;2023369;29;20497;-90
2023/05/21 05:13:22;;;;;;;8.98;6.40;;;;;;;;;;2015439;29;20097;-91
2023/05/21 05:14:23;;;;;;;9.52;5.97;;;;;;;;;;2015610;29;20088;-91
2023/05/21 05:15:23;;;;;;;8.10;6.07;;;;;;;;;;2023816;29;20096;-92
2023/05/21 05:16:24;;;;;;;9.35;6.00;;;;;;;;;;2032266;29;20039;-90
2023/05/21 05:17:25;;;;;;;9.48;5.97;;;;;;;;;;2023322;29;20032;-90
2023/05/21 05:18:25;;;;;;;8.48;5.80;;;;;;;;;;2023504;29;20036;-92
2023/05/21 05:19:26;;;;;;;9.52;6.13;;;;;;;;;;2007948;29;20036;-90
2023/05/21 05:20:29;;;;;;;9.48;6.57;;;;;;;;;;2008028;29;20032;-91
2023/05/21 05:21:30;;;;;;;10.25;6.80;;;;;;;;;;2015298;29;20438;-90
2023/05/21 05:22:31;;;;;;;10.40;7.68;;;;;;;;;;2022549;29;20052;-91
2023/05/21 05:24:00;;;;;;;9.48;6.68;;;;;;;;;;2023368;29;20513;-92
2023/05/21 05:25:01;;;;;;;9.50;6.20;;;;;;;;;;2011836;29;20114;-91
2023/05/21 05:26:01;;;;;;;9.60;6.85;;;;;;;;;;2031700;29;20020;-91
2023/05/21 05:27:04;;;;;;;10.52;7.03;;;;;;;;;;2023190;29;20024;-91
2023/05/21 05:28:05;;;;;;;9.38;6.65;;;;;;;;;;2023644;29;20099;-92
2023/05/21 05:29:06;;;;;;;9.05;6.68;;;;;;;;;;2023032;29;20025;-91
2023/05/21 05:30:07;;;;;;;8.35;6.63;;;;;;;;;;2023078;29;20024;-92
2023/05/21 05:31:07;;;;;;;11.93;7.47;;;;;;;;;;2031717;29;20480;-92
2023/05/21 05:32:10;;;;;;;11.77;6.65;;;;;;;;;;2023384;29;20047;-91
2023/05/21 05:33:11;;;;;;;13.27;7.47;;;;;;;;;;2023125;29;20052;-91
2023/05/21 05:34:11;;;;;;;12.13;8.15;;;;;;;;;;2023108;29;20461;-90
2023/05/21 05:35:12;;;;;;;11.70;7.70;;;;;;;;;;2022367;29;20488;-91
2023/05/21 05:36:12;;;;;;;12.50;7.20;;;;;;;;;;2024387;29;20052;-90
2023/05/21 05:37:12;;;;;;;9.68;6.85;;;;;;;;;;2033838;29;20027;-90
2023/05/21 05:38:13;;;;;;;11.25;8.13;;;;;;;;;;2032397;29;20027;-90
2023/05/21 05:39:13;;;;;;;10.25;7.50;;;;;;;;;;2033314;29;20058;-90
2023/05/21 05:40:17;;;;;;;11.23;7.32;;;;;;;;;;2024065;29;20608;-92
2023/05/21 05:41:17;;;;;;;11.30;7.07;;;;;;;;;;2024472;29;20035;-91
2023/05/21 05:42:18;;;;;;;9.23;6.93;;;;;;;;;;2024233;29;20119;-89
2023/05/21 05:43:18;;;;;;;10.38;7.60;;;;;;;;;;2024959;29;20441;-90
2023/05/21 05:44:18;;;;;;;12.48;7.82;;;;;;;;;;2036701;29;20015;-90
2023/05/21 05:45:48;;;;;;;;;;;;;;;;;;;;;
2023/05/21 05:46:49;;;;;;;9.40;7.35;;;;;;;;;;2031873;29;20020;-91
2023/05/21 05:48:10;;;;;;;9.93;7.97;;;;;;;;;;2023599;29;20425;-88
2023/05/21 05:49:13;;;;;;;13.23;8.80;;;;;;;;;;2018093;29;20036;-93
2023/05/21 05:50:22;;;;;;;10.73;7.82;;;;;;;;;;2015806;29;20025;-90
2023/05/21 05:51:30;;;;;;;11.48;7.82;;;;;;;;;;2024428;29;20102;-90
2023/05/21 05:52:30;;;;;;;13.00;8.13;;;;;;;;;;2025851;29;20035;-91
2023/05/21 05:53:31;;;;;;;11.73;8.57;;;;;;;;;;2023395;29;20035;-89
2023/05/21 05:54:36;;;;;;;13.02;8.55;;;;;;;;;;1844195;29;10074783;-90
2023/05/21 05:55:37;;;;;;;12.90;8.60;;;;;;;;;;2031816;29;20270;-91
2023/05/21 05:56:37;;;;;;;12.60;9.25;;;;;;;;;;2039212;29;20047;-91
2023/05/21 05:57:37;;;;;;;12.15;8.73;;;;;;;;;;2023546;29;20527;-90
2023/05/21 05:58:38;;;;;;;18.63;9.60;;;;;;;;;;2016432;29;20453;-89
2023/05/21 05:59:38;;;;;;;12.65;8.23;;;;;;;;;;2023880;29;20040;-90
2023/05/21 06:00:39;;;;;;;12.93;8.10;;;;;;;;;;2033026;29;20457;-89
2023/05/21 06:01:41;;;;;;;12.30;7.22;;;;;;;;;;2032586;29;20032;-90
2023/05/21 06:02:41;;;;;;;10.90;8.13;;;;;;;;;;2023791;29;20168;-89
2023/05/21 06:03:44;;;;;;;13.63;8.00;;;;;;;;;;2023451;29;20514;-90
2023/05/21 06:04:45;;;;;;;11.23;8.27;;;;;;;;;;2032006;29;20036;-89
2023/05/21 06:05:45;;;;;;;12.10;8.00;;;;;;;;;;2032220;29;20059;-90
2023/05/21 06:06:47;;;;;;;12.02;8.40;;;;;;;;;;2032886;29;20088;-88
2023/05/21 06:07:48;;;;;;;11.98;7.93;;;;;;;;;;2024519;29;20152;-88
2023/05/21 06:08:48;;;;;;;11.90;8.77;;;;;;;;;;2024339;29;20033;-88
2023/05/21 06:09:49;;;;;;;13.38;8.20;;;;;;;;;;2025182;29;20040;-90